createdAt,value
2019-04-16T00:00:53.197Z,27.90
2019-04-16T00:03:23.065Z,27.90
2019-04-16T00:06:03.051Z,27.90
2019-04-16T00:08:33.349Z,27.90
2019-04-16T00:11:09.430Z,27.80
2019-04-16T00:13:45.440Z,27.80
2019-04-16T00:16:14.120Z,27.90
2019-04-16T00:18:56.429Z,27.80
2019-04-16T00:21:14.978Z,27.90
2019-04-16T00:24:01.530Z,27.90
2019-04-16T00:26:30.244Z,27.80
2019-04-16T00:29:01.619Z,27.80
2019-04-16T00:31:29.235Z,27.80
2019-04-16T00:33:57.849Z,27.80
2019-04-16T00:36:29.440Z,27.80
2019-04-16T00:38:58.113Z,27.80
2019-04-16T00:41:26.787Z,27.80
2019-04-16T00:43:55.576Z,27.80
2019-04-16T00:46:28.542Z,27.80
2019-04-16T00:48:57.225Z,27.80
2019-04-16T00:51:25.853Z,27.80
2019-04-16T00:53:54.467Z,27.80
2019-04-16T00:56:23.180Z,27.80
2019-04-16T00:58:53.001Z,27.70
2019-04-16T01:01:21.790Z,27.70
2019-04-16T01:03:50.384Z,27.70
2019-04-16T01:06:19.070Z,27.70
2019-04-16T01:08:54.611Z,27.70
2019-04-16T01:11:18.084Z,27.70
2019-04-16T01:13:46.746Z,27.70
2019-04-16T01:16:15.503Z,27.70
2019-04-16T01:18:44.227Z,27.70
2019-04-16T01:21:14.164Z,27.70
2019-04-16T01:23:43.254Z,27.60
2019-04-16T01:26:11.855Z,27.70
2019-04-16T01:28:44.616Z,27.70
2019-04-16T01:31:14.907Z,27.70
2019-04-16T01:33:56.908Z,27.70
2019-04-16T01:36:32.585Z,27.70
2019-04-16T01:39:20.930Z,27.70
2019-04-16T01:41:50.330Z,27.70
2019-04-16T01:44:19.782Z,27.70
2019-04-16T01:46:48.394Z,27.70
2019-04-16T01:49:16.974Z,28.20
2019-04-16T01:51:47.396Z,27.70
2019-04-16T01:54:15.878Z,27.70
2019-04-16T01:56:44.532Z,27.70
2019-04-16T01:59:13.184Z,27.60
2019-04-16T02:01:43.485Z,27.60
2019-04-16T02:04:12.166Z,27.60
2019-04-16T02:06:40.927Z,27.60
2019-04-16T02:09:21.928Z,27.60
2019-04-16T02:11:41.474Z,27.60
2019-04-16T02:14:10.131Z,27.60
2019-04-16T02:16:39.259Z,27.60
2019-04-16T02:19:07.904Z,27.60
2019-04-16T02:21:41.245Z,27.60
2019-04-16T02:24:09.366Z,27.60
2019-04-16T02:26:39.931Z,27.60
2019-04-16T02:29:08.614Z,27.60
2019-04-16T02:31:37.203Z,27.60
2019-04-16T02:34:05.889Z,27.60
2019-04-16T02:36:34.491Z,27.60
2019-04-16T02:39:03.702Z,27.50
2019-04-16T02:41:32.300Z,27.60
2019-04-16T02:44:00.916Z,27.50
2019-04-16T02:46:32.436Z,27.50
2019-04-16T02:48:59.899Z,27.50
2019-04-16T02:51:39.622Z,27.50
2019-04-16T02:54:20.202Z,27.50
2019-04-16T02:57:07.449Z,27.50
2019-04-16T02:59:37.827Z,27.50
2019-04-16T03:02:11.164Z,27.50
2019-04-16T03:04:44.491Z,27.50
2019-04-16T03:07:13.145Z,27.50
2019-04-16T03:09:41.892Z,27.50
2019-04-16T03:12:10.491Z,27.50
2019-04-16T03:14:39.139Z,27.50
2019-04-16T03:17:12.191Z,27.50
2019-04-16T03:19:45.183Z,28.00
2019-04-16T03:22:13.871Z,27.50
2019-04-16T03:24:42.520Z,27.50
2019-04-16T03:27:11.094Z,27.50
2019-04-16T03:29:39.779Z,27.50
2019-04-16T03:32:12.791Z,27.50
2019-04-16T03:34:38.860Z,27.50
2019-04-16T03:37:07.522Z,27.50
2019-04-16T03:39:36.131Z,27.50
2019-04-16T03:42:04.777Z,27.50
2019-04-16T03:44:36.406Z,27.50
2019-04-16T03:47:04.023Z,27.50
2019-04-16T03:49:32.690Z,27.50
2019-04-16T03:52:01.274Z,27.50
2019-04-16T03:54:29.947Z,27.50
2019-04-16T03:57:01.844Z,27.50
2019-04-16T03:59:29.694Z,27.50
2019-04-16T04:01:58.344Z,27.50
2019-04-16T04:04:29.258Z,27.50
2019-04-16T04:06:57.312Z,27.50
2019-04-16T04:09:25.998Z,27.40
2019-04-16T04:11:54.646Z,27.50
2019-04-16T04:14:23.594Z,27.50
2019-04-16T04:16:52.326Z,27.50
2019-04-16T04:19:20.967Z,27.50
2019-04-16T04:21:50.684Z,27.50
2019-04-16T04:24:19.944Z,27.50
2019-04-16T04:26:52.653Z,27.40
2019-04-16T04:29:24.778Z,27.50
2019-04-16T04:31:51.504Z,27.50
2019-04-16T04:34:20.112Z,27.50
2019-04-16T04:36:48.698Z,27.50
2019-04-16T04:39:17.422Z,27.50
2019-04-16T04:41:46.004Z,27.50
2019-04-16T04:44:14.632Z,27.50
2019-04-16T04:46:46.105Z,27.50
2019-04-16T04:49:13.673Z,27.50
2019-04-16T04:51:43.522Z,27.50
2019-04-16T04:54:12.246Z,27.50
2019-04-16T04:56:40.953Z,27.50
2019-04-16T04:59:09.546Z,27.50
2019-04-16T05:01:38.231Z,27.50
2019-04-16T05:04:11.591Z,27.50
2019-04-16T05:06:41.859Z,27.50
2019-04-16T05:09:10.507Z,27.50
2019-04-16T05:11:39.152Z,27.50
2019-04-16T05:14:07.812Z,27.50
2019-04-16T05:16:36.486Z,27.50
2019-04-16T05:19:05.174Z,27.50
2019-04-16T05:21:33.845Z,27.50
2019-04-16T05:24:02.536Z,27.50
2019-04-16T05:26:33.527Z,28.00
2019-04-16T05:29:16.446Z,27.50
2019-04-16T05:31:42.432Z,27.50
2019-04-16T05:34:11.206Z,27.50
2019-04-16T05:36:40.297Z,27.50
2019-04-16T05:39:09.683Z,27.50
2019-04-16T05:41:38.664Z,28.00
2019-04-16T05:44:07.326Z,27.50
2019-04-16T05:46:38.365Z,27.50
2019-04-16T05:49:06.591Z,27.60
2019-04-16T05:51:35.219Z,27.50
2019-04-16T05:54:12.182Z,27.60
2019-04-16T05:56:46.114Z,27.60
2019-04-16T05:59:14.695Z,27.60
2019-04-16T06:01:45.514Z,27.70
2019-04-16T06:04:14.790Z,27.70
2019-04-16T06:06:43.484Z,27.70
2019-04-16T06:09:12.936Z,27.70
2019-04-16T06:11:42.024Z,27.80
2019-04-16T06:14:26.129Z,27.80
2019-04-16T06:17:07.851Z,27.80
2019-04-16T06:19:46.528Z,27.70
2019-04-16T06:22:12.795Z,27.70
2019-04-16T06:24:43.017Z,27.70
2019-04-16T06:27:13.446Z,27.70
2019-04-16T06:29:49.319Z,27.70
2019-04-16T06:32:34.448Z,27.80
2019-04-16T06:35:08.732Z,27.80
2019-04-16T06:37:55.258Z,27.80
2019-04-16T06:40:43.315Z,27.80
2019-04-16T06:43:13.527Z,27.80
2019-04-16T06:46:00.128Z,27.80
2019-04-16T06:48:30.359Z,27.80
2019-04-16T06:51:06.535Z,27.80
2019-04-16T06:53:53.995Z,27.80
2019-04-16T06:56:33.422Z,27.80
2019-04-16T06:59:03.677Z,27.80
2019-04-16T07:01:40.048Z,27.80
2019-04-16T07:04:24.106Z,27.90
2019-04-16T07:07:10.148Z,27.90
2019-04-16T07:09:41.877Z,27.90
2019-04-16T07:12:12.289Z,27.90
2019-04-16T07:14:40.986Z,27.90
2019-04-16T07:17:09.646Z,27.90
2019-04-16T07:19:39.419Z,27.90
2019-04-16T07:22:08.578Z,27.80
2019-04-16T07:24:37.988Z,27.90
2019-04-16T07:27:07.721Z,27.90
2019-04-16T07:29:38.274Z,27.90
2019-04-16T07:32:23.233Z,27.90
2019-04-16T07:34:56.150Z,27.90
2019-04-16T07:37:38.089Z,27.90
2019-04-16T07:40:24.565Z,28.00
2019-04-16T07:42:57.968Z,28.00
2019-04-16T07:45:26.768Z,28.00
2019-04-16T07:48:00.232Z,28.00
2019-04-16T07:50:46.286Z,27.90
2019-04-16T07:53:16.536Z,27.90
2019-04-16T07:55:46.789Z,27.90
2019-04-16T07:58:15.444Z,28.00
2019-04-16T08:00:44.648Z,28.00
2019-04-16T08:03:13.230Z,28.00
2019-04-16T08:05:41.987Z,28.10
2019-04-16T08:08:10.630Z,28.10
2019-04-16T08:10:39.328Z,28.10
2019-04-16T08:13:15.556Z,28.10
2019-04-16T08:15:48.788Z,28.00
2019-04-16T08:18:17.555Z,28.00
2019-04-16T08:21:00.293Z,28.10
2019-04-16T08:23:33.731Z,28.00
2019-04-16T08:26:07.902Z,28.00
2019-04-16T08:28:34.552Z,28.00
2019-04-16T08:31:03.991Z,28.10
2019-04-16T08:33:32.619Z,28.10
2019-04-16T08:36:01.164Z,28.10
2019-04-16T08:38:34.029Z,28.10
2019-04-16T08:41:04.383Z,28.10
2019-04-16T08:43:33.175Z,28.10
2019-04-16T08:46:09.871Z,28.10
2019-04-16T08:48:34.887Z,28.10
2019-04-16T08:51:05.200Z,28.20
2019-04-16T08:53:35.614Z,28.20
2019-04-16T08:56:04.293Z,28.20
2019-04-16T08:58:35.718Z,28.20
2019-04-16T09:01:03.528Z,28.20
2019-04-16T09:03:32.175Z,28.20
2019-04-16T09:06:03.693Z,28.20
2019-04-16T09:08:32.729Z,28.20
2019-04-16T09:11:03.420Z,28.20
2019-04-16T09:13:41.091Z,28.20
2019-04-16T09:16:10.958Z,28.20
2019-04-16T09:18:49.903Z,28.10
2019-04-16T09:21:18.655Z,28.10
2019-04-16T09:24:08.881Z,28.20
2019-04-16T09:26:37.104Z,28.20
2019-04-16T09:29:23.445Z,28.20
2019-04-16T09:32:10.697Z,28.20
2019-04-16T09:34:46.551Z,28.20
2019-04-16T09:37:19.646Z,28.20
2019-04-16T09:39:52.648Z,28.20
2019-04-16T09:42:21.493Z,28.30
2019-04-16T09:44:50.115Z,28.30
2019-04-16T09:47:18.761Z,28.20
2019-04-16T09:49:47.374Z,28.30
2019-04-16T09:52:16.208Z,28.30
2019-04-16T09:54:45.188Z,28.30
2019-04-16T09:57:13.788Z,28.30
2019-04-16T09:59:44.667Z,28.30
2019-04-16T10:02:16.439Z,28.30
2019-04-16T10:04:45.112Z,28.30
2019-04-16T10:07:13.765Z,28.30
2019-04-16T10:09:42.469Z,28.40
2019-04-16T10:12:11.096Z,28.40
2019-04-16T10:14:39.803Z,28.40
2019-04-16T10:17:08.552Z,28.40
2019-04-16T10:19:42.922Z,28.40
2019-04-16T10:22:07.521Z,28.40
2019-04-16T10:24:56.544Z,28.40
2019-04-16T10:27:41.962Z,28.40
2019-04-16T10:30:21.863Z,28.40
2019-04-16T10:32:50.646Z,28.40
2019-04-16T10:35:19.554Z,28.40
2019-04-16T10:37:48.384Z,28.30
2019-04-16T10:40:30.652Z,28.30
2019-04-16T10:43:16.812Z,28.30
2019-04-16T10:45:55.760Z,28.40
2019-04-16T10:48:34.741Z,28.40
2019-04-16T10:51:22.978Z,28.40
2019-04-16T10:54:04.806Z,28.40
2019-04-16T10:56:56.873Z,28.40
2019-04-16T10:59:41.210Z,28.40
2019-04-16T11:02:11.600Z,28.40
2019-04-16T11:04:47.597Z,28.40
2019-04-16T11:07:17.949Z,28.40
2019-04-16T11:09:46.613Z,28.40
2019-04-16T11:12:15.824Z,28.40
2019-04-16T11:14:44.543Z,28.40
2019-04-16T11:17:13.347Z,28.40
2019-04-16T11:19:42.043Z,28.40
2019-04-16T11:22:10.753Z,28.40
2019-04-16T11:24:39.548Z,28.50
2019-04-16T11:27:08.190Z,28.50
2019-04-16T11:29:38.384Z,28.50
2019-04-16T11:32:07.294Z,28.50
2019-04-16T11:34:35.986Z,28.50
2019-04-16T11:37:08.077Z,28.50
2019-04-16T11:39:36.354Z,28.50
2019-04-16T11:42:05.306Z,28.50
2019-04-16T11:44:33.912Z,28.50
2019-04-16T11:47:06.380Z,28.50
2019-04-16T11:49:35.005Z,28.50
2019-04-16T11:52:03.688Z,28.50
2019-04-16T11:54:32.290Z,28.50
2019-04-16T11:57:00.942Z,28.50
2019-04-16T11:59:29.768Z,28.50
2019-04-16T12:02:16.435Z,28.50
2019-04-16T12:05:01.700Z,28.50
2019-04-16T12:07:47.203Z,28.50
2019-04-16T12:10:26.494Z,28.50
2019-04-16T12:12:56.829Z,28.60
2019-04-16T12:15:27.839Z,28.60
2019-04-16T12:17:58.204Z,28.60
2019-04-16T12:20:46.398Z,28.60
2019-04-16T12:23:27.081Z,28.60
2019-04-16T12:26:13.547Z,28.70
2019-04-16T12:28:43.886Z,28.60
2019-04-16T12:31:16.709Z,28.70
2019-04-16T12:33:51.827Z,28.60
2019-04-16T12:36:38.485Z,28.60
2019-04-16T12:39:19.695Z,28.70
2019-04-16T12:41:56.219Z,28.70
2019-04-16T12:44:27.780Z,28.80
2019-04-16T12:47:10.027Z,28.80
2019-04-16T12:49:56.534Z,28.70
2019-04-16T12:52:38.910Z,28.70
2019-04-16T12:55:31.353Z,28.80
2019-04-16T12:58:05.079Z,28.70
2019-04-16T13:00:53.289Z,28.80
2019-04-16T13:03:38.499Z,28.80
2019-04-16T13:06:11.507Z,28.80
2019-04-16T13:08:58.219Z,28.80
2019-04-16T13:11:28.444Z,28.80
2019-04-16T13:13:58.734Z,28.70
2019-04-16T13:16:32.889Z,28.80
2019-04-16T13:19:09.198Z,28.90
2019-04-16T13:21:48.261Z,28.90
2019-04-16T13:24:18.759Z,28.90
2019-04-16T13:26:57.746Z,28.90
2019-04-16T13:29:29.485Z,28.90
2019-04-16T13:31:57.542Z,28.90
2019-04-16T13:34:26.331Z,28.90
2019-04-16T13:36:59.355Z,28.90
2019-04-16T13:39:44.887Z,28.90
2019-04-16T13:42:13.665Z,28.90
2019-04-16T13:44:44.058Z,28.90
2019-04-16T13:47:12.868Z,28.90
2019-04-16T13:49:48.991Z,28.90
2019-04-16T13:52:20.581Z,28.90
2019-04-16T13:54:52.468Z,28.90
2019-04-16T13:57:25.407Z,28.90
2019-04-16T13:59:55.380Z,28.60
2019-04-16T14:02:31.788Z,28.40
2019-04-16T14:05:04.321Z,28.10
2019-04-16T14:07:30.964Z,27.90
2019-04-16T14:09:59.610Z,27.70
2019-04-16T14:12:41.830Z,27.50
2019-04-16T14:14:58.644Z,27.40
2019-04-16T14:17:28.685Z,27.20
2019-04-16T14:19:57.466Z,27.30
2019-04-16T14:22:26.186Z,27.20
2019-04-16T14:24:54.894Z,27.10
2019-04-16T14:27:23.568Z,26.90
2019-04-16T14:29:52.175Z,26.90
2019-04-16T14:32:20.881Z,26.70
2019-04-16T14:34:55.134Z,26.80
2019-04-16T14:37:26.137Z,26.90
2019-04-16T14:39:56.536Z,27.00
2019-04-16T14:42:25.226Z,27.20
2019-04-16T14:44:58.437Z,27.30
2019-04-16T14:47:29.867Z,27.40
2019-04-16T14:50:00.228Z,27.60
2019-04-16T14:52:28.873Z,27.70
2019-04-16T14:55:08.391Z,27.80
2019-04-16T14:57:39.798Z,27.90
2019-04-16T15:00:28.630Z,27.90
2019-04-16T15:03:01.856Z,28.00
2019-04-16T15:05:34.959Z,28.00
2019-04-16T15:08:05.271Z,28.10
2019-04-16T15:10:35.606Z,28.20
2019-04-16T15:13:08.776Z,28.20
2019-04-16T15:15:41.057Z,28.20
2019-04-16T15:18:11.278Z,28.20
2019-04-16T15:20:41.503Z,28.30
2019-04-16T15:23:17.891Z,28.30
2019-04-16T15:25:54.113Z,28.30
2019-04-16T15:28:27.450Z,28.30
2019-04-16T15:31:06.677Z,28.30
2019-04-16T15:33:42.611Z,28.30
2019-04-16T15:36:19.426Z,28.30
2019-04-16T15:38:50.119Z,28.30
2019-04-16T15:41:23.056Z,28.40
2019-04-16T15:44:13.964Z,28.40
2019-04-16T15:47:00.468Z,28.40
2019-04-16T15:49:30.719Z,28.40
2019-04-16T15:52:09.556Z,28.40
2019-04-16T15:54:47.527Z,28.40
2019-04-16T15:57:35.868Z,28.50
2019-04-16T16:00:10.762Z,28.40
2019-04-16T16:02:57.166Z,28.50
2019-04-16T16:05:27.555Z,28.50
2019-04-16T16:08:09.738Z,28.50
2019-04-16T16:10:45.143Z,28.50
2019-04-16T16:13:10.230Z,28.50
2019-04-16T16:15:40.463Z,28.50
2019-04-16T16:18:09.258Z,28.50
2019-04-16T16:20:37.879Z,28.60
2019-04-16T16:23:06.489Z,28.50
2019-04-16T16:25:41.167Z,29.00
2019-04-16T16:28:08.723Z,28.60
2019-04-16T16:30:37.419Z,28.60
2019-04-16T16:33:06.157Z,28.60
2019-04-16T16:35:35.296Z,28.60
2019-04-16T16:38:04.039Z,28.60
2019-04-16T16:40:34.384Z,28.60
2019-04-16T16:43:06.463Z,28.60
2019-04-16T16:45:54.371Z,28.60
2019-04-16T16:48:24.263Z,28.60
2019-04-16T16:50:52.915Z,28.60
2019-04-16T16:53:28.998Z,28.60
2019-04-16T16:55:59.306Z,28.60
2019-04-16T16:58:35.399Z,28.60
2019-04-16T17:01:13.946Z,28.60
2019-04-16T17:03:58.335Z,28.60
2019-04-16T17:06:28.743Z,28.60
2019-04-16T17:08:57.441Z,28.60
2019-04-16T17:11:26.100Z,28.60
2019-04-16T17:13:54.769Z,28.60
2019-04-16T17:16:23.478Z,28.60
2019-04-16T17:18:52.103Z,28.60
2019-04-16T17:21:20.752Z,28.70
2019-04-16T17:23:49.403Z,28.60
2019-04-16T17:26:20.842Z,28.70
2019-04-16T17:28:49.546Z,28.60
2019-04-16T17:31:18.232Z,28.70
2019-04-16T17:33:46.932Z,28.70
2019-04-16T17:36:15.655Z,28.70
2019-04-16T17:38:44.236Z,28.70
2019-04-16T17:41:14.545Z,28.70
2019-04-16T17:44:02.703Z,28.70
2019-04-16T17:46:40.638Z,28.70
2019-04-16T17:49:10.923Z,28.70
2019-04-16T17:51:53.128Z,28.70
2019-04-16T17:54:38.421Z,28.70
2019-04-16T17:57:08.650Z,28.70
2019-04-16T17:59:38.866Z,28.60
2019-04-16T18:02:28.111Z,28.70
2019-04-16T18:04:57.048Z,28.70
2019-04-16T18:07:43.787Z,28.70
2019-04-16T18:10:14.180Z,28.70
2019-04-16T18:12:47.154Z,28.70
2019-04-16T18:15:20.043Z,28.70
2019-04-16T18:18:09.258Z,28.80
2019-04-16T18:20:39.630Z,28.70
2019-04-16T18:23:12.923Z,28.70
2019-04-16T18:25:56.766Z,28.80
2019-04-16T18:28:32.669Z,28.70
2019-04-16T18:31:03.050Z,28.70
2019-04-16T18:33:42.047Z,28.70
2019-04-16T18:36:16.965Z,28.80
2019-04-16T18:38:47.096Z,28.70
2019-04-16T18:41:32.283Z,28.70
2019-04-16T18:44:02.801Z,28.70
2019-04-16T18:46:36.174Z,28.70
2019-04-16T18:49:14.343Z,28.70
2019-04-16T18:51:45.294Z,28.70
2019-04-16T18:54:14.979Z,28.70
2019-04-16T18:56:44.428Z,28.80
2019-04-16T18:59:17.251Z,28.80
2019-04-16T19:01:47.543Z,28.70
2019-04-16T19:04:16.308Z,28.70
2019-04-16T19:06:44.852Z,28.70
2019-04-16T19:09:13.499Z,28.70
2019-04-16T19:11:42.178Z,28.70
2019-04-16T19:14:13.192Z,28.70
2019-04-16T19:16:41.208Z,28.70
2019-04-16T19:19:09.845Z,28.80
2019-04-16T19:21:42.236Z,28.80
2019-04-16T19:24:09.006Z,28.80
2019-04-16T19:26:37.618Z,28.70
2019-04-16T19:29:06.782Z,28.70
2019-04-16T19:31:36.539Z,28.70
2019-04-16T19:34:09.294Z,28.70
2019-04-16T19:36:35.625Z,28.80
2019-04-16T19:39:07.090Z,28.80
2019-04-16T19:41:36.840Z,28.70
2019-04-16T19:44:07.226Z,28.70
2019-04-16T19:46:35.796Z,28.70
2019-04-16T19:49:04.560Z,28.70
2019-04-16T19:51:33.215Z,28.70
2019-04-16T19:54:01.834Z,28.70
2019-04-16T19:56:33.474Z,28.70
2019-04-16T19:59:01.023Z,28.70
2019-04-16T20:01:29.676Z,28.70
2019-04-16T20:03:58.276Z,28.70
2019-04-16T20:06:26.978Z,28.70
2019-04-16T20:08:55.910Z,28.70
2019-04-16T20:11:24.483Z,28.70
2019-04-16T20:14:01.102Z,28.70
2019-04-16T20:16:26.336Z,28.70
2019-04-16T20:18:54.998Z,28.70
2019-04-16T20:21:23.623Z,28.70
2019-04-16T20:23:52.299Z,28.70
2019-04-16T20:26:20.942Z,28.70
2019-04-16T20:28:49.567Z,28.70
2019-04-16T20:31:18.250Z,28.70
2019-04-16T20:33:46.908Z,28.70
2019-04-16T20:36:15.611Z,28.70
2019-04-16T20:38:44.279Z,28.70
2019-04-16T20:41:18.110Z,28.70
2019-04-16T20:43:43.279Z,28.70
2019-04-16T20:46:11.958Z,28.70
2019-04-16T20:48:41.877Z,28.70
2019-04-16T20:51:10.943Z,28.70
2019-04-16T20:53:41.293Z,28.60
2019-04-16T20:56:10.896Z,28.70
2019-04-16T20:58:39.778Z,28.70
2019-04-16T21:01:08.549Z,28.70
2019-04-16T21:03:39.161Z,28.70
2019-04-16T21:06:09.614Z,28.70
2019-04-16T21:08:38.302Z,28.70
2019-04-16T21:11:09.155Z,28.70
2019-04-16T21:13:37.324Z,28.70
2019-04-16T21:16:06.083Z,28.70
2019-04-16T21:18:37.627Z,28.70
2019-04-16T21:21:06.363Z,28.70
2019-04-16T21:23:38.004Z,28.70
2019-04-16T21:26:06.650Z,28.80
2019-04-16T21:28:53.055Z,28.70
2019-04-16T21:31:32.118Z,28.70
2019-04-16T21:34:07.898Z,28.70
2019-04-16T21:36:40.948Z,28.70
2019-04-16T21:39:11.228Z,28.70
2019-04-16T21:41:39.798Z,28.70
2019-04-16T21:44:12.138Z,28.70
2019-04-16T21:46:38.729Z,28.80
2019-04-16T21:49:08.816Z,28.80
2019-04-16T21:51:39.335Z,29.20
2019-04-16T21:54:07.958Z,28.70
2019-04-16T21:56:36.930Z,28.70
2019-04-16T21:59:06.868Z,28.70
2019-04-16T22:01:43.155Z,28.70
2019-04-16T22:04:14.602Z,28.70
2019-04-16T22:06:43.309Z,28.70
2019-04-16T22:09:11.988Z,28.70
2019-04-16T22:11:43.240Z,28.70
2019-04-16T22:14:10.850Z,28.70
2019-04-16T22:16:39.575Z,28.70
2019-04-16T22:19:11.023Z,28.70
2019-04-16T22:21:39.689Z,28.80
2019-04-16T22:24:09.135Z,28.80
2019-04-16T22:26:37.743Z,28.80
2019-04-16T22:29:06.499Z,28.70
2019-04-16T22:31:35.261Z,28.80
2019-04-16T22:34:04.320Z,28.80
2019-04-16T22:36:33.106Z,28.80
2019-04-16T22:39:03.549Z,28.80
2019-04-16T22:41:36.631Z,28.80
2019-04-16T22:44:10.083Z,28.80
2019-04-16T22:46:40.378Z,28.70
2019-04-16T22:49:09.172Z,28.70
2019-04-16T22:51:39.833Z,28.70
2019-04-16T22:54:08.226Z,28.70
2019-04-16T22:56:41.270Z,28.70
2019-04-16T22:59:09.990Z,28.70
2019-04-16T23:01:41.806Z,28.70
2019-04-16T23:04:10.703Z,28.70
2019-04-16T23:06:39.415Z,28.70
2019-04-16T23:09:08.438Z,28.70
2019-04-16T23:11:38.978Z,28.70
2019-04-16T23:14:09.670Z,28.70
2019-04-16T23:16:41.647Z,28.70
2019-04-16T23:19:08.650Z,28.70
2019-04-16T23:21:42.304Z,28.70
2019-04-16T23:24:07.564Z,28.70
2019-04-16T23:26:36.184Z,28.70
2019-04-16T23:29:04.893Z,28.70
2019-04-16T23:31:33.554Z,28.70
2019-04-16T23:34:06.412Z,28.70
2019-04-16T23:36:32.479Z,28.70
2019-04-16T23:39:04.327Z,28.70
2019-04-16T23:41:31.619Z,28.70
2019-04-16T23:44:13.678Z,28.70
2019-04-16T23:46:46.850Z,28.70
2019-04-16T23:49:34.979Z,28.70
2019-04-16T23:52:05.394Z,28.60
2019-04-16T23:54:51.674Z,28.60
2019-04-16T23:57:37.081Z,28.60
